WZZ1676 EDDH-EPGD
Flight info
| Callsign | WZZ1676 |
|---|---|
| Flight time | 1h 1m |
| Altitude | 37000 |
| Route | RAMAR6G/33 RAMAR L23 GEVNI DCT BINKA DCT LUXAL L730 KOSEX |
| Aircraft | A321/M-SDE3FGHIRWY/LB1 |
Departure
| Time | 2026-04-30 19:49 |
|---|---|
| Airport | Hamburg Helmut Schmidt Airport (EDDH) |
Arrival
| Time | 2026-04-30 20:50 |
|---|---|
| Airport | Gdańsk Lech Wałęsa Airport (EPGD) |
| Time | Latitude | Longitude | Altitude | Speed | Heading |
|---|---|---|---|---|---|
| 2026-04-30 18:41 | 53.62409 | 10.00529 | 42 ft | 0 kts | 242° |
| 2026-04-30 18:51 | 53.62403 | 10.00513 | 41 ft | 0 kts | 242° |
| 2026-04-30 18:52 | 53.62737 | 10.00302 | 43 ft | 0 kts | 61° |
| 2026-04-30 19:35 | 53.62730 | 10.00282 | 42 ft | 4 kts | 58° |
| 2026-04-30 19:36 | 53.62715 | 10.00245 | 41 ft | 4 kts | 46° |
| 2026-04-30 19:36 | 53.62695 | 10.00218 | 40 ft | 4 kts | 18° |
| 2026-04-30 19:36 | 53.62676 | 10.00216 | 41 ft | 0 kts | 332° |
| 2026-04-30 19:40 | 53.62676 | 10.00215 | 43 ft | 1 kts | 332° |
| 2026-04-30 19:40 | 53.62687 | 10.00206 | 42 ft | 3 kts | 332° |
| 2026-04-30 19:40 | 53.62707 | 10.00188 | 44 ft | 4 kts | 332° |
| 2026-04-30 19:40 | 53.62738 | 10.00161 | 44 ft | 6 kts | 333° |
| 2026-04-30 19:41 | 53.62779 | 10.00127 | 44 ft | 7 kts | 333° |
| 2026-04-30 19:41 | 53.62814 | 10.00097 | 45 ft | 0 kts | 333° |
| 2026-04-30 19:41 | 53.62819 | 10.00093 | 45 ft | 3 kts | 333° |
| 2026-04-30 19:41 | 53.62848 | 10.00064 | 45 ft | 0 kts | 330° |
| 2026-04-30 19:42 | 53.62852 | 10.00060 | 45 ft | 3 kts | 333° |
| 2026-04-30 19:42 | 53.62860 | 10.00054 | 45 ft | 0 kts | 332° |
| 2026-04-30 19:42 | 53.62860 | 10.00047 | 45 ft | 1 kts | 291° |
| 2026-04-30 19:42 | 53.62850 | 9.99983 | 45 ft | 9 kts | 242° |
| 2026-04-30 19:43 | 53.62844 | 9.99966 | 45 ft | 0 kts | 242° |
| 2026-04-30 19:46 | 53.62839 | 9.99950 | 46 ft | 6 kts | 242° |
| 2026-04-30 19:46 | 53.62816 | 9.99839 | 46 ft | 11 kts | 271° |
| 2026-04-30 19:47 | 53.62872 | 9.99741 | 47 ft | 11 kts | 328° |
| 2026-04-30 19:47 | 53.62882 | 9.99731 | 47 ft | 0 kts | 331° |
| 2026-04-30 19:48 | 53.62883 | 9.99731 | 47 ft | 0 kts | 331° |
| 2026-04-30 19:48 | 53.62921 | 9.99697 | 47 ft | 30 kts | 333° |
| 2026-04-30 19:48 | 53.63374 | 9.99306 | 50 ft | 113 kts | 333° |
| 2026-04-30 19:48 | 53.64272 | 9.98536 | 85 ft | 171 kts | 333° |
| 2026-04-30 19:49 | 53.65374 | 9.97584 | 699 ft | 180 kts | 335° |
| 2026-04-30 19:49 | 53.67632 | 9.95683 | 2141 ft | 188 kts | 334° |
| 2026-04-30 19:49 | 53.68914 | 9.94802 | 2413 ft | 210 kts | 349° |
| 2026-04-30 19:50 | 53.70406 | 9.94692 | 2915 ft | 218 kts | 1° |
| 2026-04-30 19:50 | 53.71938 | 9.94778 | 3633 ft | 220 kts | 11° |
| 2026-04-30 19:50 | 53.73353 | 9.95741 | 4413 ft | 220 kts | 38° |
| 2026-04-30 19:50 | 53.74406 | 9.97691 | 4891 ft | 242 kts | 63° |
| 2026-04-30 19:51 | 53.75178 | 10.00341 | 4997 ft | 256 kts | 66° |
| 2026-04-30 19:51 | 53.75952 | 10.03082 | 5011 ft | 258 kts | 66° |
| 2026-04-30 19:51 | 53.76730 | 10.05823 | 5013 ft | 258 kts | 65° |
| 2026-04-30 19:51 | 53.77506 | 10.08539 | 5010 ft | 259 kts | 65° |
| 2026-04-30 19:52 | 53.78289 | 10.11275 | 5012 ft | 258 kts | 65° |
| 2026-04-30 19:52 | 53.79085 | 10.14049 | 5264 ft | 266 kts | 65° |
| 2026-04-30 19:52 | 53.79896 | 10.16875 | 5128 ft | 269 kts | 65° |
| 2026-04-30 19:52 | 53.80694 | 10.19660 | 5004 ft | 259 kts | 65° |
| 2026-04-30 19:53 | 53.81486 | 10.22431 | 5276 ft | 266 kts | 65° |
| 2026-04-30 19:53 | 53.82287 | 10.25230 | 6343 ft | 262 kts | 65° |
| 2026-04-30 19:53 | 53.83082 | 10.28014 | 7333 ft | 262 kts | 65° |
| 2026-04-30 19:53 | 53.83851 | 10.30840 | 8195 ft | 265 kts | 70° |
| 2026-04-30 19:54 | 53.84323 | 10.33836 | 9035 ft | 269 kts | 81° |
| 2026-04-30 19:54 | 53.84419 | 10.37020 | 9880 ft | 273 kts | 92° |
| 2026-04-30 19:54 | 53.84094 | 10.40247 | 10343 ft | 279 kts | 108° |
| 2026-04-30 19:54 | 53.83353 | 10.43391 | 10720 ft | 297 kts | 110° |
| 2026-04-30 19:55 | 53.82557 | 10.46729 | 10960 ft | 321 kts | 110° |
| 2026-04-30 19:55 | 53.81690 | 10.50365 | 11150 ft | 344 kts | 110° |
| 2026-04-30 19:55 | 53.80774 | 10.54181 | 11653 ft | 355 kts | 110° |
| 2026-04-30 19:55 | 53.79939 | 10.58156 | 12363 ft | 357 kts | 100° |
| 2026-04-30 19:56 | 53.79828 | 10.62337 | 13093 ft | 359 kts | 85° |
| 2026-04-30 19:56 | 53.80004 | 10.66507 | 13874 ft | 361 kts | 84° |
| 2026-04-30 19:56 | 53.80194 | 10.70770 | 14600 ft | 365 kts | 84° |
| 2026-04-30 19:56 | 53.80378 | 10.75071 | 15215 ft | 369 kts | 84° |
| 2026-04-30 19:57 | 53.80559 | 10.79462 | 14692 ft | 380 kts | 84° |
| 2026-04-30 19:57 | 53.80751 | 10.83978 | 14477 ft | 388 kts | 84° |
| 2026-04-30 19:57 | 53.80946 | 10.88546 | 14455 ft | 389 kts | 84° |
| 2026-04-30 19:57 | 53.81196 | 10.93124 | 14460 ft | 390 kts | 83° |
| 2026-04-30 19:58 | 53.81515 | 10.97683 | 14461 ft | 390 kts | 82° |
| 2026-04-30 19:58 | 53.81869 | 11.02176 | 14456 ft | 389 kts | 81° |
| 2026-04-30 19:58 | 53.82244 | 11.06746 | 14453 ft | 389 kts | 81° |
| 2026-04-30 19:58 | 53.82613 | 11.11281 | 14451 ft | 389 kts | 81° |
| 2026-04-30 19:59 | 53.82972 | 11.15863 | 14826 ft | 394 kts | 81° |
| 2026-04-30 19:59 | 53.83320 | 11.20476 | 15527 ft | 397 kts | 81° |
| 2026-04-30 19:59 | 53.83997 | 11.29792 | 16780 ft | 404 kts | 81° |
| 2026-04-30 20:00 | 53.84336 | 11.34537 | 17370 ft | 408 kts | 81° |
| 2026-04-30 20:00 | 53.84677 | 11.39347 | 17954 ft | 412 kts | 81° |
| 2026-04-30 20:00 | 53.85018 | 11.44183 | 18530 ft | 415 kts | 81° |
| 2026-04-30 20:00 | 53.85362 | 11.49086 | 19047 ft | 419 kts | 81° |
| 2026-04-30 20:01 | 53.86059 | 11.58991 | 19846 ft | 425 kts | 81° |
| 2026-04-30 20:01 | 53.86403 | 11.63929 | 20360 ft | 427 kts | 80° |
| 2026-04-30 20:01 | 53.86751 | 11.68950 | 20870 ft | 430 kts | 80° |
| 2026-04-30 20:02 | 53.87452 | 11.79109 | 21858 ft | 436 kts | 81° |
| 2026-04-30 20:02 | 53.87801 | 11.84250 | 22326 ft | 439 kts | 81° |
| 2026-04-30 20:03 | 53.88494 | 11.94567 | 23038 ft | 450 kts | 81° |
| 2026-04-30 20:03 | 53.88850 | 11.99904 | 23316 ft | 456 kts | 81° |
| 2026-04-30 20:03 | 53.89205 | 12.05279 | 23714 ft | 460 kts | 81° |
| 2026-04-30 20:03 | 53.89558 | 12.10694 | 24082 ft | 462 kts | 81° |
| 2026-04-30 20:04 | 53.89910 | 12.16128 | 24398 ft | 465 kts | 81° |
| 2026-04-30 20:04 | 53.90262 | 12.21592 | 24697 ft | 467 kts | 81° |
| 2026-04-30 20:04 | 53.90610 | 12.27020 | 24977 ft | 469 kts | 81° |
| 2026-04-30 20:05 | 53.91310 | 12.38043 | 25664 ft | 469 kts | 81° |
| 2026-04-30 20:05 | 53.91655 | 12.43534 | 26054 ft | 468 kts | 81° |
| 2026-04-30 20:05 | 53.92337 | 12.54541 | 26833 ft | 467 kts | 81° |
| 2026-04-30 20:06 | 53.92675 | 12.60030 | 27231 ft | 467 kts | 81° |
| 2026-04-30 20:06 | 53.93008 | 12.65506 | 27631 ft | 466 kts | 81° |
| 2026-04-30 20:06 | 53.93336 | 12.70912 | 28031 ft | 466 kts | 81° |
| 2026-04-30 20:06 | 53.93665 | 12.76378 | 28439 ft | 465 kts | 81° |
| 2026-04-30 20:07 | 53.93992 | 12.81835 | 28858 ft | 464 kts | 81° |
| 2026-04-30 20:07 | 53.94316 | 12.87295 | 29290 ft | 464 kts | 81° |
| 2026-04-30 20:07 | 53.94946 | 12.98169 | 30137 ft | 463 kts | 81° |
| 2026-04-30 20:08 | 53.95257 | 13.03622 | 30554 ft | 462 kts | 81° |
| 2026-04-30 20:08 | 53.95566 | 13.09057 | 30912 ft | 461 kts | 81° |
| 2026-04-30 20:08 | 53.95872 | 13.14480 | 31278 ft | 461 kts | 81° |
| 2026-04-30 20:08 | 53.96175 | 13.19819 | 31635 ft | 460 kts | 81° |
| 2026-04-30 20:09 | 53.96479 | 13.25231 | 32001 ft | 459 kts | 81° |
| 2026-04-30 20:09 | 53.96780 | 13.30639 | 32365 ft | 459 kts | 81° |
| 2026-04-30 20:09 | 53.97365 | 13.41402 | 33105 ft | 457 kts | 81° |
| 2026-04-30 20:10 | 53.97941 | 13.52110 | 33825 ft | 456 kts | 81° |
| 2026-04-30 20:10 | 53.98228 | 13.57481 | 34186 ft | 455 kts | 82° |
| 2026-04-30 20:10 | 53.98511 | 13.62837 | 34532 ft | 454 kts | 81° |
| 2026-04-30 20:11 | 53.99068 | 13.73528 | 35152 ft | 453 kts | 81° |
| 2026-04-30 20:11 | 53.99343 | 13.78851 | 35464 ft | 452 kts | 81° |
| 2026-04-30 20:11 | 53.99615 | 13.84175 | 35779 ft | 451 kts | 81° |
| 2026-04-30 20:12 | 54.00147 | 13.94742 | 36413 ft | 449 kts | 81° |
| 2026-04-30 20:12 | 54.00408 | 14.00039 | 36730 ft | 448 kts | 81° |
| 2026-04-30 20:12 | 54.00578 | 14.03535 | 36946 ft | 448 kts | 81° |
| 2026-04-30 20:13 | 54.00917 | 14.10527 | 37360 ft | 447 kts | 81° |
| 2026-04-30 20:13 | 54.01341 | 14.19316 | 37438 ft | 446 kts | 81° |
| 2026-04-30 20:14 | 54.01835 | 14.29844 | 37438 ft | 445 kts | 81° |
| 2026-04-30 20:14 | 54.02325 | 14.40335 | 37433 ft | 445 kts | 81° |
| 2026-04-30 20:15 | 54.02813 | 14.50828 | 37428 ft | 444 kts | 81° |
| 2026-04-30 20:15 | 54.03275 | 14.61194 | 37424 ft | 437 kts | 81° |
| 2026-04-30 20:16 | 54.03719 | 14.71450 | 37425 ft | 433 kts | 81° |
| 2026-04-30 20:16 | 54.04157 | 14.81677 | 37423 ft | 432 kts | 81° |
| 2026-04-30 20:17 | 54.04592 | 14.91883 | 37422 ft | 431 kts | 81° |
| 2026-04-30 20:17 | 54.05020 | 15.02081 | 37420 ft | 431 kts | 81° |
| 2026-04-30 20:18 | 54.05424 | 15.12196 | 37415 ft | 431 kts | 81° |
| 2026-04-30 20:18 | 54.05820 | 15.22390 | 37418 ft | 431 kts | 81° |
| 2026-04-30 20:19 | 54.06213 | 15.32568 | 37412 ft | 430 kts | 81° |
| 2026-04-30 20:19 | 54.06599 | 15.42753 | 37410 ft | 430 kts | 81° |
| 2026-04-30 20:20 | 54.06975 | 15.52858 | 37411 ft | 430 kts | 81° |
| 2026-04-30 20:20 | 54.07344 | 15.63036 | 37410 ft | 430 kts | 81° |
| 2026-04-30 20:21 | 54.07699 | 15.73207 | 37408 ft | 429 kts | 81° |
| 2026-04-30 20:21 | 54.08043 | 15.83301 | 37407 ft | 429 kts | 81° |
| 2026-04-30 20:22 | 54.08389 | 15.93484 | 36764 ft | 432 kts | 81° |
| 2026-04-30 20:22 | 54.08561 | 15.98585 | 36220 ft | 430 kts | 81° |
| 2026-04-30 20:22 | 54.08726 | 16.03691 | 35584 ft | 429 kts | 81° |
| 2026-04-30 20:22 | 54.08886 | 16.08782 | 34997 ft | 430 kts | 82° |
| 2026-04-30 20:23 | 54.09044 | 16.13872 | 34422 ft | 430 kts | 82° |
| 2026-04-30 20:23 | 54.09200 | 16.18903 | 33776 ft | 430 kts | 82° |
| 2026-04-30 20:23 | 54.09355 | 16.23966 | 33127 ft | 424 kts | 82° |
| 2026-04-30 20:23 | 54.09501 | 16.28955 | 32490 ft | 414 kts | 81° |
| 2026-04-30 20:24 | 54.09640 | 16.33751 | 31877 ft | 405 kts | 81° |
| 2026-04-30 20:24 | 54.09777 | 16.38499 | 31274 ft | 395 kts | 81° |
| 2026-04-30 20:24 | 54.09909 | 16.43124 | 30682 ft | 387 kts | 81° |
| 2026-04-30 20:24 | 54.10040 | 16.47668 | 30032 ft | 378 kts | 81° |
| 2026-04-30 20:25 | 54.10289 | 16.56474 | 28693 ft | 365 kts | 81° |
| 2026-04-30 20:25 | 54.10411 | 16.60764 | 28048 ft | 360 kts | 81° |
| 2026-04-30 20:26 | 54.10648 | 16.69170 | 26801 ft | 355 kts | 81° |
| 2026-04-30 20:26 | 54.10879 | 16.77548 | 25615 ft | 353 kts | 81° |
| 2026-04-30 20:26 | 54.10989 | 16.81720 | 25021 ft | 349 kts | 81° |
| 2026-04-30 20:27 | 54.11186 | 16.89807 | 23887 ft | 337 kts | 81° |
| 2026-04-30 20:27 | 54.11379 | 16.97674 | 22584 ft | 326 kts | 81° |
| 2026-04-30 20:28 | 54.11564 | 17.05290 | 21329 ft | 316 kts | 81° |
| 2026-04-30 20:28 | 54.11735 | 17.12630 | 20143 ft | 308 kts | 81° |
| 2026-04-30 20:29 | 54.11899 | 17.19857 | 18988 ft | 302 kts | 81° |
| 2026-04-30 20:30 | 54.12136 | 17.30443 | 16991 ft | 296 kts | 82° |
| 2026-04-30 20:30 | 54.12358 | 17.40878 | 15026 ft | 291 kts | 82° |
| 2026-04-30 20:31 | 54.12563 | 17.51095 | 13055 ft | 286 kts | 82° |
| 2026-04-30 20:32 | 54.13399 | 17.60966 | 11077 ft | 279 kts | 75° |
| 2026-04-30 20:32 | 54.14073 | 17.67364 | 10388 ft | 269 kts | 75° |
| 2026-04-30 20:33 | 54.14402 | 17.70511 | 10243 ft | 270 kts | 75° |
| 2026-04-30 20:33 | 54.15064 | 17.76822 | 9549 ft | 269 kts | 75° |
| 2026-04-30 20:33 | 54.15392 | 17.79972 | 9184 ft | 268 kts | 75° |
| 2026-04-30 20:34 | 54.16035 | 17.86165 | 8462 ft | 266 kts | 76° |
| 2026-04-30 20:34 | 54.16674 | 17.92393 | 7759 ft | 266 kts | 76° |
| 2026-04-30 20:35 | 54.16992 | 17.95498 | 7412 ft | 265 kts | 76° |
| 2026-04-30 20:35 | 54.17310 | 17.98593 | 7090 ft | 264 kts | 76° |
| 2026-04-30 20:35 | 54.17947 | 18.04798 | 7016 ft | 267 kts | 76° |
| 2026-04-30 20:36 | 54.18260 | 18.07885 | 7015 ft | 267 kts | 77° |
| 2026-04-30 20:36 | 54.18577 | 18.11028 | 6873 ft | 266 kts | 77° |
| 2026-04-30 20:36 | 54.19207 | 18.17270 | 6606 ft | 266 kts | 77° |
| 2026-04-30 20:37 | 54.19523 | 18.20394 | 6481 ft | 266 kts | 76° |
| 2026-04-30 20:37 | 54.19835 | 18.23470 | 6347 ft | 266 kts | 76° |
| 2026-04-30 20:37 | 54.20148 | 18.26588 | 6217 ft | 266 kts | 77° |
| 2026-04-30 20:37 | 54.20456 | 18.29695 | 6083 ft | 265 kts | 77° |
| 2026-04-30 20:38 | 54.20761 | 18.32799 | 5963 ft | 265 kts | 77° |
| 2026-04-30 20:38 | 54.21059 | 18.35866 | 5819 ft | 256 kts | 77° |
| 2026-04-30 20:38 | 54.21345 | 18.38813 | 5698 ft | 246 kts | 76° |
| 2026-04-30 20:39 | 54.21888 | 18.44365 | 5442 ft | 233 kts | 76° |
| 2026-04-30 20:39 | 54.22160 | 18.47099 | 5320 ft | 232 kts | 76° |
| 2026-04-30 20:39 | 54.22429 | 18.49791 | 5180 ft | 232 kts | 76° |
| 2026-04-30 20:40 | 54.22961 | 18.55234 | 4935 ft | 231 kts | 77° |
| 2026-04-30 20:40 | 54.23217 | 18.57899 | 4797 ft | 222 kts | 77° |
| 2026-04-30 20:40 | 54.23461 | 18.60451 | 4671 ft | 213 kts | 77° |
| 2026-04-30 20:41 | 54.23776 | 18.65426 | 4414 ft | 213 kts | 92° |
| 2026-04-30 20:41 | 54.23447 | 18.67878 | 4289 ft | 216 kts | 108° |
| 2026-04-30 20:41 | 54.22848 | 18.70254 | 4166 ft | 216 kts | 110° |
| 2026-04-30 20:41 | 54.22250 | 18.72619 | 4063 ft | 216 kts | 110° |
| 2026-04-30 20:42 | 54.21662 | 18.74955 | 3992 ft | 215 kts | 110° |
| 2026-04-30 20:42 | 54.21068 | 18.77325 | 4000 ft | 216 kts | 110° |
| 2026-04-30 20:42 | 54.20403 | 18.82156 | 4015 ft | 208 kts | 75° |
| 2026-04-30 20:43 | 54.20962 | 18.84301 | 3996 ft | 188 kts | 48° |
| 2026-04-30 20:43 | 54.21913 | 18.85657 | 3997 ft | 175 kts | 25° |
| 2026-04-30 20:43 | 54.23068 | 18.86208 | 4000 ft | 172 kts | 2° |
| 2026-04-30 20:44 | 54.25404 | 18.85494 | 3999 ft | 172 kts | 348° |
| 2026-04-30 20:44 | 54.26572 | 18.85039 | 3999 ft | 172 kts | 347° |
| 2026-04-30 20:44 | 54.28564 | 18.82829 | 4008 ft | 177 kts | 307° |
| 2026-04-30 20:45 | 54.29662 | 18.79048 | 3994 ft | 179 kts | 298° |
| 2026-04-30 20:45 | 54.30162 | 18.77094 | 3939 ft | 179 kts | 297° |
| 2026-04-30 20:45 | 54.30654 | 18.75143 | 3763 ft | 175 kts | 297° |
| 2026-04-30 20:46 | 54.32069 | 18.69498 | 3097 ft | 171 kts | 297° |
| 2026-04-30 20:46 | 54.32538 | 18.67620 | 2860 ft | 171 kts | 297° |
| 2026-04-30 20:47 | 54.33448 | 18.63974 | 2406 ft | 164 kts | 297° |
| 2026-04-30 20:47 | 54.33894 | 18.62184 | 2187 ft | 163 kts | 296° |
| 2026-04-30 20:48 | 54.34754 | 18.58723 | 1746 ft | 144 kts | 296° |
| 2026-04-30 20:48 | 54.35135 | 18.57191 | 1544 ft | 135 kts | 296° |
| 2026-04-30 20:48 | 54.35499 | 18.55728 | 1361 ft | 132 kts | 296° |
| 2026-04-30 20:48 | 54.35857 | 18.54287 | 1176 ft | 131 kts | 295° |
| 2026-04-30 20:49 | 54.36214 | 18.52850 | 995 ft | 131 kts | 294° |
| 2026-04-30 20:49 | 54.36569 | 18.51425 | 819 ft | 132 kts | 294° |
| 2026-04-30 20:49 | 54.36924 | 18.49984 | 635 ft | 131 kts | 294° |
| 2026-04-30 20:50 | 54.37591 | 18.47301 | 462 ft | 93 kts | 292° |
| 2026-04-30 20:50 | 54.37774 | 18.46554 | 457 ft | 44 kts | 293° |
| 2026-04-30 20:50 | 54.37872 | 18.46174 | 458 ft | 28 kts | 294° |
| 2026-04-30 20:50 | 54.37967 | 18.45898 | 456 ft | 28 kts | 313° |
| 2026-04-30 20:51 | 54.38067 | 18.45752 | 455 ft | 9 kts | 323° |
| 2026-04-30 20:51 | 54.38086 | 18.45728 | 455 ft | 0 kts | 323° |
| 2026-04-30 20:51 | 54.38087 | 18.45727 | 455 ft | 1 kts | 323° |
| 2026-04-30 20:52 | 54.38100 | 18.45719 | 455 ft | 3 kts | 344° |
| 2026-04-30 20:52 | 54.38128 | 18.45727 | 455 ft | 5 kts | 32° |
| 2026-04-30 20:52 | 54.38125 | 18.45865 | 457 ft | 6 kts | 112° |
| 2026-04-30 20:53 | 54.38109 | 18.45928 | 458 ft | 5 kts | 114° |
| 2026-04-30 20:53 | 54.38091 | 18.45996 | 459 ft | 7 kts | 114° |
| 2026-04-30 20:53 | 54.38067 | 18.46089 | 460 ft | 10 kts | 113° |
| 2026-04-30 20:54 | 54.38003 | 18.46352 | 460 ft | 12 kts | 113° |
| 2026-04-30 20:54 | 54.37966 | 18.46502 | 460 ft | 14 kts | 112° |
| 2026-04-30 20:54 | 54.37968 | 18.46655 | 460 ft | 14 kts | 103° |
| 2026-04-30 20:55 | 54.37933 | 18.46882 | 460 ft | 4 kts | 22° |
| 2026-04-30 20:55 | 54.37971 | 18.46907 | 460 ft | 5 kts | 21° |
| 2026-04-30 20:55 | 54.37987 | 18.46918 | 460 ft | 0 kts | 22° |